KMER

Castle Airport

Atwater, California, USA
KMER 210520Z 2106/2206 30007KT P6SM SKC AMD NOT SKED
Issued Valid From Valid To
Jul-21 @ 05:20 UTC
(4 hours ago)
Jul-21 @ 06:00 UTC
(4 hours ago)
Jul-22 @ 06:00 UTC
(in 20 hours)
Jul-21 @ 06:00 to Jul-22 @ 06:00
KMER 210520Z 2106/2206 30007KT P6SM SKC AMD NOT SKED
Wind Visibility Clouds
300° at 7 knots Greater than 6 miles
  • Clear skies
KMER 210520Z 2106/2206 30007KT P6SM SKC AMD NOT SKED
Issued Jul-21 @ 05:20 UTC
(4 hours ago)
Valid From Jul-21 @ 06:00 UTC
(4 hours ago)
Valid To Jul-22 @ 06:00 UTC
(in 20 hours)
Jul-21 @ 06:00 - Jul-22 @ 06:00
Wind Visibility
300° at 7 knots Greater than 6 miles
Clouds
  • Clear skies